Time;durP1;ratioP1;P1;durP2;ratioP2;P2;SDS_P1;SDS_P2;PMS_P1;PMS_P2;Temp;Humidity;BMP_temperature;BMP_pressure;BME280_temperature;BME280_humidity;BME280_pressure;Samples;Min_cycle;Max_cycle;Signal;HPM_P1;HPM_P2
2021/08/14 00:01:19;;;;;;;12.00;6.30;;;;;;;18.15;72.47;99824.53;5016049;28;20056;-68
2021/08/14 00:03:45;;;;;;;12.90;6.10;;;;;;;18.12;72.49;99816.88;5000225;28;20044;-68
2021/08/14 00:06:11;;;;;;;11.50;6.43;;;;;;;18.12;72.75;99827.63;4999599;28;20041;-68
2021/08/14 00:08:37;;;;;;;11.05;6.70;;;;;;;18.10;72.89;99819.78;5032753;28;20048;-68
2021/08/14 00:11:04;;;;;;;20.65;6.32;;;;;;;18.10;73.05;99827.00;5032735;28;20516;-68
2021/08/14 00:13:30;;;;;;;9.40;6.05;;;;;;;18.09;73.20;99831.56;5049312;28;20216;-68
2021/08/14 00:15:56;;;;;;;10.65;5.72;;;;;;;18.07;72.87;99835.47;5016071;28;20044;-68
2021/08/14 00:18:22;;;;;;;12.85;5.85;;;;;;;18.04;73.05;99830.50;5048972;28;20044;-68
2021/08/14 00:20:48;;;;;;;9.70;6.10;;;;;;;18.01;73.13;99830.91;5035773;28;20041;-68
2021/08/14 00:23:13;;;;;;;11.45;5.82;;;;;;;17.99;73.14;99841.06;5018670;28;20045;-67
2021/08/14 00:25:39;;;;;;;10.30;5.95;;;;;;;17.95;73.19;99845.97;5033541;28;20742;-67
2021/08/14 00:28:05;;;;;;;11.63;6.28;;;;;;;17.94;73.43;99851.56;5001084;28;20084;-68
2021/08/14 00:30:31;;;;;;;11.15;6.15;;;;;;;17.88;73.46;99853.16;5017703;28;20052;-68
2021/08/14 00:32:57;;;;;;;12.82;5.50;;;;;;;17.87;73.62;99856.91;5017508;28;20052;-68
2021/08/14 00:35:23;;;;;;;10.27;5.68;;;;;;;17.83;73.69;99852.13;5001433;28;20066;-69
2021/08/14 00:37:49;;;;;;;11.77;6.45;;;;;;;17.85;73.58;99858.13;5017617;28;20045;-68
2021/08/14 00:40:14;;;;;;;9.18;6.18;;;;;;;17.83;73.73;99854.81;5034644;28;20045;-68
2021/08/14 00:42:40;;;;;;;11.10;6.35;;;;;;;17.77;73.79;99859.13;5036190;28;20382;-68
2021/08/14 00:45:07;;;;;;;16.08;7.80;;;;;;;17.76;73.76;99862.00;5019425;28;20492;-68
2021/08/14 00:47:33;;;;;;;16.05;6.93;;;;;;;17.71;74.11;99859.91;5035838;28;20135;-68
2021/08/14 00:49:59;;;;;;;16.67;7.20;;;;;;;17.68;74.58;99868.34;5019273;28;20052;-68
2021/08/14 00:52:25;;;;;;;9.00;6.88;;;;;;;17.61;74.55;99863.97;5018898;28;20044;-68
2021/08/14 00:54:57;;;;;;;10.68;6.90;;;;;;;17.60;74.92;99865.00;5052295;28;20048;-68
2021/08/14 00:57:23;;;;;;;13.38;6.95;;;;;;;17.60;74.91;99867.69;5018788;28;20047;-68
2021/08/14 00:59:50;;;;;;;13.00;6.72;;;;;;;17.65;74.36;99859.88;5002574;28;20045;-68
2021/08/14 01:02:19;;;;;;;14.93;7.50;;;;;;;17.67;74.34;99873.94;5035303;28;20040;-68
2021/08/14 01:04:50;;;;;;;14.77;7.10;;;;;;;17.66;74.35;99862.38;5051625;28;20049;-68
2021/08/14 01:07:17;;;;;;;9.63;6.50;;;;;;;17.65;74.32;99865.25;5018550;28;20045;-68
2021/08/14 01:09:44;;;;;;;12.98;7.35;;;;;;;17.61;74.49;99856.75;5051816;28;20071;-68
2021/08/14 01:12:13;;;;;;;11.45;7.00;;;;;;;17.62;74.40;99860.28;5035119;28;20044;-68
2021/08/14 01:14:39;;;;;;;9.20;7.28;;;;;;;17.57;74.52;99855.50;5051990;28;20048;-68
2021/08/14 01:17:05;;;;;;;11.30;7.38;;;;;;;17.54;74.34;99858.59;5068449;28;20061;-68
2021/08/14 01:19:31;;;;;;;10.05;6.40;;;;;;;17.53;74.44;99858.78;5034888;28;20041;-68
2021/08/14 01:21:58;;;;;;;15.25;7.40;;;;;;;17.49;74.51;99860.19;5051717;28;20060;-68
2021/08/14 01:24:24;;;;;;;14.18;7.40;;;;;;;17.42;74.48;99859.28;5002351;28;20045;-69
2021/08/14 01:26:50;;;;;;;13.80;7.65;;;;;;;17.38;74.51;99869.59;5050979;28;20148;-69
2021/08/14 01:29:17;;;;;;;13.45;7.47;;;;;;;17.32;74.79;99864.16;5001934;28;20068;-68
2021/08/14 01:31:43;;;;;;;9.30;7.40;;;;;;;17.28;74.81;99870.94;5034641;28;20044;-68
2021/08/14 01:34:09;;;;;;;12.38;7.80;;;;;;;17.23;74.82;99871.53;5034787;28;20527;-68
2021/08/14 01:36:35;;;;;;;13.80;7.60;;;;;;;17.15;75.04;99871.69;5051092;28;20509;-68
2021/08/14 01:39:03;;;;;;;12.60;7.07;;;;;;;17.11;75.05;99862.38;5034378;28;20963;-69
2021/08/14 01:41:29;;;;;;;12.48;8.00;;;;;;;17.06;75.33;99866.63;5018206;28;20091;-68
2021/08/14 01:44:06;;;;;;;11.95;8.25;;;;;;;17.04;75.73;99869.50;5017725;28;20044;-68
2021/08/14 01:46:34;;;;;;;16.13;8.45;;;;;;;17.01;75.87;99864.53;5050821;28;20052;-67
2021/08/14 01:49:01;;;;;;;13.65;8.25;;;;;;;17.00;75.71;99867.41;5017876;28;20032;-68
2021/08/14 01:51:28;;;;;;;20.50;8.20;;;;;;;16.98;75.83;99866.75;5034189;28;20470;-67
2021/08/14 01:53:56;;;;;;;17.27;8.77;;;;;;;16.98;75.87;99872.13;5034509;28;20358;-67
2021/08/14 01:56:23;;;;;;;15.35;8.05;;;;;;;16.92;76.08;99870.22;5067680;28;20048;-68
2021/08/14 01:58:49;;;;;;;12.57;8.73;;;;;;;16.93;76.24;99875.41;5017951;28;20166;-67
2021/08/14 02:01:15;;;;;;;21.50;8.45;;;;;;;16.92;75.99;99871.06;5017708;28;20083;-67
2021/08/14 02:03:46;;;;;;;14.73;7.75;;;;;;;16.92;75.82;99873.75;5034326;28;20566;-67
2021/08/14 02:06:12;;;;;;;;;;;;;;;16.93;75.89;99872.72;5051645;28;20129;-67
2021/08/14 02:08:38;;;;;;;14.85;8.85;;;;;;;16.87;76.23;99870.00;5017910;28;19920;-67
2021/08/14 02:11:16;;;;;;;13.10;8.07;;;;;;;16.94;76.35;99870.88;5017623;28;20049;-67
2021/08/14 02:13:43;;;;;;;14.65;8.07;;;;;;;16.91;76.21;99873.94;5034514;28;20091;-68
2021/08/14 02:16:09;;;;;;;14.65;8.23;;;;;;;16.94;76.12;99871.72;5051936;28;20052;-68
2021/08/14 02:18:35;;;;;;;13.85;8.20;;;;;;;16.94;75.95;99882.44;5050494;28;20080;-68
2021/08/14 02:21:02;;;;;;;13.63;8.25;;;;;;;16.96;76.02;99877.69;5017542;28;20098;-68
2021/08/14 02:23:28;;;;;;;11.50;8.00;;;;;;;16.98;75.86;99872.13;5033687;28;20049;-68
2021/08/14 02:25:54;;;;;;;14.15;8.45;;;;;;;16.99;75.82;99877.31;5017416;28;20043;-67
2021/08/14 02:28:20;;;;;;;13.68;7.90;;;;;;;16.97;75.72;99874.00;5033761;28;20053;-67
2021/08/14 02:30:48;;;;;;;13.07;7.75;;;;;;;16.98;75.63;99872.97;5001198;28;20140;-68
2021/08/14 02:33:14;;;;;;;14.32;8.82;;;;;;;16.95;75.63;99869.84;5033578;28;20124;-68
2021/08/14 02:35:40;;;;;;;16.02;8.18;;;;;;;16.96;75.56;99874.19;5033706;28;20398;-67
2021/08/14 02:38:06;;;;;;;16.23;8.48;;;;;;;16.88;75.61;99870.63;5000651;28;20497;-68
2021/08/14 02:40:34;;;;;;;11.90;8.55;;;;;;;16.94;75.69;99873.56;5016892;28;20037;-68
2021/08/14 02:43:00;;;;;;;15.55;8.50;;;;;;;16.98;75.73;99874.81;5016691;28;20045;-67
2021/08/14 02:45:26;;;;;;;15.23;8.55;;;;;;;16.99;75.57;99877.31;5049863;28;20045;-67
2021/08/14 02:47:54;;;;;;;16.25;9.63;;;;;;;17.01;75.60;99877.13;5016830;28;20409;-68
2021/08/14 02:50:19;;;;;;;14.52;9.82;;;;;;;17.04;75.33;99877.56;5049414;28;20516;-67
2021/08/14 02:52:45;;;;;;;15.68;9.38;;;;;;;17.05;75.20;99873.03;5000717;28;20044;-67
2021/08/14 02:55:11;;;;;;;16.77;9.43;;;;;;;17.04;75.21;99874.88;5000507;28;20041;-68
2021/08/14 02:57:37;;;;;;;19.05;9.50;;;;;;;17.03;74.95;99872.41;5033037;28;20048;-68
2021/08/14 03:00:03;;;;;;;15.70;9.45;;;;;;;17.03;74.93;99875.91;5066367;28;20077;-68
2021/08/14 03:02:30;;;;;;;13.32;8.77;;;;;;;17.03;74.88;99872.41;5016715;28;20041;-68
2021/08/14 03:04:56;;;;;;;12.43;8.27;;;;;;;17.07;74.90;99884.41;4999912;28;20106;-68
2021/08/14 03:07:22;;;;;;;15.57;8.90;;;;;;;17.09;74.73;99874.31;5032747;28;20045;-68
2021/08/14 03:09:47;;;;;;;13.15;8.68;;;;;;;17.11;75.04;99877.63;5016483;28;20045;-67
2021/08/14 03:12:14;;;;;;;15.10;9.15;;;;;;;17.14;74.82;99877.25;5016493;28;20045;-67
2021/08/14 03:14:39;;;;;;;14.48;8.80;;;;;;;17.18;74.75;99881.19;5032379;28;20052;-68
2021/08/14 03:17:05;;;;;;;13.60;8.55;;;;;;;17.22;74.64;99882.47;4999847;28;20048;-67
2021/08/14 03:19:32;;;;;;;14.40;8.20;;;;;;;17.27;74.47;99891.59;5016101;28;20568;-67
2021/08/14 03:21:58;;;;;;;15.32;8.00;;;;;;;17.32;74.20;99882.94;5049368;28;20049;-67
2021/08/14 03:24:24;;;;;;;15.07;8.50;;;;;;;17.36;74.32;99885.06;5032405;28;20106;-67
2021/08/14 03:26:50;;;;;;;11.00;8.43;;;;;;;17.38;74.10;99874.94;4983339;28;20505;-67
2021/08/14 03:29:17;;;;;;;14.82;8.10;;;;;;;17.42;74.00;99886.13;5016266;28;20489;-67
2021/08/14 03:31:44;;;;;;;11.75;7.78;;;;;;;17.49;73.71;99887.03;5049373;28;20511;-67
2021/08/14 03:34:10;;;;;;;10.60;7.72;;;;;;;17.54;73.66;99884.59;5032455;28;20140;-67
2021/08/14 03:36:35;;;;;;;9.90;7.75;;;;;;;17.57;73.25;99889.59;5049127;28;20075;-67
2021/08/14 03:39:01;;;;;;;11.80;8.00;;;;;;;17.63;73.11;99896.84;5015723;28;20041;-67
2021/08/14 03:41:27;;;;;;;9.98;7.75;;;;;;;17.65;72.83;99895.59;5016186;28;20036;-67
2021/08/14 03:43:53;;;;;;;14.07;9.25;;;;;;;17.69;72.84;99902.28;5015732;28;20094;-67
2021/08/14 03:46:19;;;;;;;12.73;9.75;;;;;;;17.72;72.84;99906.41;5032387;28;20135;-67
2021/08/14 03:48:45;;;;;;;15.70;10.27;;;;;;;17.73;72.69;99898.16;5016345;28;20131;-66
2021/08/14 03:51:11;;;;;;;19.88;10.68;;;;;;;17.76;72.49;99908.50;5048853;28;20559;-67
2021/08/14 03:53:37;;;;;;;14.65;11.13;;;;;;;17.81;72.54;99905.22;5050184;28;20479;-67
2021/08/14 03:56:03;;;;;;;16.70;10.10;;;;;;;17.84;72.42;99910.19;5019747;28;20040;-68
2021/08/14 03:58:35;;;;;;;15.13;9.15;;;;;;;17.91;72.39;99895.75;5052805;28;20412;-67
2021/08/14 04:01:01;;;;;;;16.98;8.82;;;;;;;17.94;72.39;99906.13;5036164;28;20508;-67
2021/08/14 04:03:28;;;;;;;15.18;8.80;;;;;;;17.98;72.34;99901.19;5019665;28;20049;-68
2021/08/14 04:05:53;;;;;;;13.68;8.85;;;;;;;18.00;71.97;99901.81;5053652;28;20067;-68
2021/08/14 04:08:20;;;;;;;15.18;8.32;;;;;;;18.05;72.11;99908.25;5019809;28;20052;-67
2021/08/14 04:10:46;;;;;;;16.67;8.13;;;;;;;18.10;72.06;99903.13;5036088;28;20424;-68
2021/08/14 04:13:12;;;;;;;20.52;8.93;;;;;;;18.07;71.83;99891.91;5019633;28;20041;-68
2021/08/14 04:15:38;;;;;;;15.15;8.32;;;;;;;18.20;71.98;99910.81;5003065;28;20175;-68
2021/08/14 04:18:04;;;;;;;12.32;8.18;;;;;;;18.24;71.83;99918.28;5052614;28;20041;-68
2021/08/14 04:20:30;;;;;;;12.68;8.10;;;;;;;18.28;71.94;99911.47;5035706;28;20049;-68
2021/08/14 04:22:56;;;;;;;13.85;8.15;;;;;;;18.31;72.04;99912.94;5069145;28;20489;-68
2021/08/14 04:25:22;;;;;;;16.27;8.77;;;;;;;18.37;72.08;99917.50;5002971;28;20041;-68
2021/08/14 04:27:48;;;;;;;17.85;8.50;;;;;;;18.42;71.89;99923.13;5052569;28;20064;-67
2021/08/14 04:30:14;;;;;;;12.75;7.93;;;;;;;18.49;71.94;99910.53;5035699;28;20052;-68
2021/08/14 04:32:40;;;;;;;11.70;8.02;;;;;;;18.53;71.63;99909.09;5052220;28;20059;-68
2021/08/14 04:35:10;;;;;;;13.27;8.27;;;;;;;18.62;71.71;99910.56;5019299;28;20053;-68
2021/08/14 04:37:37;;;;;;;18.33;7.72;;;;;;;18.58;71.43;99895.88;5002749;28;20033;-68
2021/08/14 04:40:05;;;;;;;17.27;7.68;;;;;;;18.78;71.12;99909.38;5052103;28;20040;-68
2021/08/14 04:42:31;;;;;;;14.95;7.97;;;;;;;18.83;71.09;99913.13;5018967;28;20496;-68
2021/08/14 04:44:57;;;;;;;15.57;7.72;;;;;;;18.92;71.15;99927.19;5018937;28;20051;-64
2021/08/14 04:47:22;;;;;;;13.20;7.85;;;;;;;18.99;70.77;99918.09;5018822;28;20049;-63
2021/08/14 04:49:48;;;;;;;15.75;7.78;;;;;;;19.07;70.57;99909.84;5035583;28;20060;-65
2021/08/14 04:52:14;;;;;;;9.50;7.32;;;;;;;19.13;70.20;99909.00;5051875;28;20167;-65
2021/08/14 04:54:40;;;;;;;18.88;7.47;;;;;;;19.22;70.11;99923.13;5035239;28;20489;-65
2021/08/14 04:57:06;;;;;;;17.83;7.65;;;;;;;19.31;69.89;99913.81;5051533;28;20041;-65
2021/08/14 04:59:32;;;;;;;11.13;6.93;;;;;;;19.40;69.51;99918.81;5052908;28;20051;-65
2021/08/14 05:01:57;;;;;;;14.63;7.15;;;;;;;19.48;69.48;99915.06;5034954;28;20044;-66
2021/08/14 05:04:23;;;;;;;12.65;7.55;;;;;;;19.56;69.04;99914.81;5034729;28;20063;-65
2021/08/14 05:06:50;;;;;;;15.73;6.95;;;;;;;19.64;68.63;99912.75;5018363;28;20076;-66
2021/08/14 05:09:16;;;;;;;12.23;7.13;;;;;;;19.76;68.39;99927.25;5052562;28;20084;-66
2021/08/14 05:11:42;;;;;;;13.63;6.97;;;;;;;19.85;68.29;99922.47;5051423;28;20039;-67
2021/08/14 05:14:08;;;;;;;10.07;6.80;;;;;;;19.84;67.92;99900.06;5034880;28;20604;-65
2021/08/14 05:16:36;;;;;;;15.80;7.28;;;;;;;20.00;67.66;99923.88;5053057;28;20032;-66
2021/08/14 05:19:03;;;;;;;10.50;6.30;;;;;;;20.12;67.45;99924.06;5049609;28;20037;-67
2021/08/14 05:21:29;;;;;;;14.00;6.80;;;;;;;20.22;67.30;99924.47;5050162;28;20131;-68
2021/08/14 05:23:56;;;;;;;15.00;6.53;;;;;;;20.29;67.13;99927.97;5033679;28;20058;-67
2021/08/14 05:26:22;;;;;;;11.43;6.95;;;;;;;20.39;66.72;99922.94;5016841;28;20051;-68
2021/08/14 05:28:48;;;;;;;10.95;6.70;;;;;;;20.48;66.91;99929.75;5033354;28;20555;-68
2021/08/14 05:31:14;;;;;;;10.23;6.47;;;;;;;20.56;66.65;99923.31;5017515;28;20511;-68
2021/08/14 05:33:40;;;;;;;15.38;6.30;;;;;;;20.65;66.52;99928.22;5066907;28;20040;-66
2021/08/14 05:36:08;;;;;;;12.20;6.32;;;;;;;20.73;66.41;99930.66;5032422;28;20496;-68
2021/08/14 05:38:35;;;;;;;13.55;6.05;;;;;;;20.83;65.92;99924.81;5033259;28;20037;-70
2021/08/14 05:41:02;;;;;;;9.13;6.43;;;;;;;20.90;65.62;99922.88;4999442;28;20040;-70
2021/08/14 05:43:27;;;;;;;12.77;6.28;;;;;;;20.98;65.40;99925.34;5015366;28;20079;-70
2021/08/14 05:45:53;;;;;;;17.45;6.40;;;;;;;21.06;65.09;99925.09;5003508;28;20090;-70
2021/08/14 05:48:21;;;;;;;10.95;6.78;;;;;;;21.16;64.55;99925.44;5033457;28;20080;-70
2021/08/14 05:50:47;;;;;;;15.32;6.13;;;;;;;21.27;64.38;99916.63;5049116;28;20116;-70
2021/08/14 05:53:14;;;;;;;8.38;5.20;;;;;;;21.36;64.12;99936.91;5066866;28;20053;-69
2021/08/14 05:55:40;;;;;;;9.27;6.00;;;;;;;21.42;63.83;99930.63;5033257;28;20041;-69
2021/08/14 05:58:06;;;;;;;8.80;5.10;;;;;;;21.49;62.18;99931.41;5050211;28;20095;-69
2021/08/14 06:00:32;;;;;;;10.07;5.20;;;;;;;21.59;61.84;99932.56;5033760;28;20049;-70
2021/08/14 06:02:58;;;;;;;13.18;5.18;;;;;;;21.67;61.55;99931.44;5066764;28;20454;-70
2021/08/14 06:05:24;;;;;;;10.13;5.85;;;;;;;21.79;61.60;99929.69;5001012;28;20036;-69
2021/08/14 06:07:50;;;;;;;7.25;4.53;;;;;;;21.92;61.40;99928.75;5033282;28;20045;-69
2021/08/14 06:10:17;;;;;;;11.52;5.07;;;;;;;22.08;60.56;99941.69;5050141;28;20076;-69
2021/08/14 06:12:43;;;;;;;8.98;4.95;;;;;;;22.19;59.69;99941.75;5016504;28;20063;-70
2021/08/14 06:15:10;;;;;;;13.82;4.88;;;;;;;22.32;58.79;99938.91;5049752;28;20063;-70
2021/08/14 06:17:36;;;;;;;11.07;5.10;;;;;;;22.41;58.44;99932.13;5015919;28;20436;-69
2021/08/14 06:20:03;;;;;;;9.88;4.85;;;;;;;22.50;57.82;99938.06;5016632;28;20049;-70
2021/08/14 06:22:29;;;;;;;12.82;4.65;;;;;;;22.60;57.49;99928.38;5016540;28;20119;-70
2021/08/14 06:24:55;;;;;;;12.13;4.47;;;;;;;22.73;57.09;99930.06;5000432;28;20198;-70
2021/08/14 06:27:21;;;;;;;7.10;3.88;;;;;;;22.86;56.76;99941.53;5016410;28;20052;-70
2021/08/14 06:29:47;;;;;;;6.45;4.15;;;;;;;22.99;56.06;99940.53;5016659;28;20041;-70
2021/08/14 06:32:13;;;;;;;6.43;3.90;;;;;;;23.12;55.12;99938.47;5033015;28;20049;-70
2021/08/14 06:34:39;;;;;;;10.15;4.32;;;;;;;23.21;55.12;99950.63;5016245;28;20040;-70
2021/08/14 06:37:06;;;;;;;11.48;4.60;;;;;;;23.31;55.39;99939.22;5032735;28;20048;-70
2021/08/14 06:39:32;;;;;;;8.60;4.70;;;;;;;23.42;55.30;99934.91;5049559;28;20049;-70
2021/08/14 06:41:57;;;;;;;13.90;4.40;;;;;;;23.57;55.46;99932.56;5049582;28;20385;-70
2021/08/14 06:44:23;;;;;;;8.80;4.32;;;;;;;23.71;54.18;99939.41;5016300;28;20045;-70
2021/08/14 06:46:49;;;;;;;7.25;4.35;;;;;;;23.91;53.78;99931.75;5032447;28;20052;-70
2021/08/14 06:49:15;;;;;;;10.45;3.97;;;;;;;24.10;52.74;99930.56;5049119;28;20052;-70
2021/08/14 06:51:41;;;;;;;9.38;3.30;;;;;;;24.23;50.83;99939.28;5032492;28;20582;-70
2021/08/14 06:54:08;;;;;;;6.55;3.42;;;;;;;24.38;50.60;99938.78;5032333;28;20049;-69
2021/08/14 06:56:34;;;;;;;7.80;3.55;;;;;;;24.50;50.10;99934.13;5016388;28;20051;-69
2021/08/14 06:59:00;;;;;;;4.47;2.75;;;;;;;24.54;49.24;99938.03;5032170;28;20044;-70
2021/08/14 07:01:26;;;;;;;5.78;3.25;;;;;;;24.70;48.59;99949.00;5032544;28;20047;-70
2021/08/14 07:03:52;;;;;;;6.15;3.13;;;;;;;24.72;46.88;99944.13;5032311;28;20072;-78
2021/08/14 07:06:23;;;;;;;8.43;2.95;;;;;;;24.96;46.01;99949.47;4999441;28;20156;-77
2021/08/14 07:08:50;;;;;;;6.68;3.08;;;;;;;25.16;45.96;99956.09;5032714;28;20044;-77
2021/08/14 07:11:17;;;;;;;7.15;3.85;;;;;;;25.47;45.73;99958.31;5015547;28;20041;-77
2021/08/14 07:13:43;;;;;;;6.45;3.08;;;;;;;25.67;45.22;99961.38;5031846;28;20416;-77
2021/08/14 07:16:09;;;;;;;8.13;3.00;;;;;;;25.96;44.33;99967.53;5032441;28;20040;-76
2021/08/14 07:18:35;;;;;;;6.13;3.20;;;;;;;26.40;45.07;99959.19;5032279;28;20048;-79
2021/08/14 07:21:01;;;;;;;13.82;3.20;;;;;;;27.13;42.64;99952.44;5032943;28;20520;-76
2021/08/14 07:23:27;;;;;;;8.60;3.22;;;;;;;28.53;39.87;99980.03;5015646;28;20032;-75
2021/08/14 07:25:53;;;;;;;8.23;3.30;;;;;;;30.62;34.86;100000.50;5048726;28;20071;-77
2021/08/14 07:28:19;;;;;;;3.72;2.97;;;;;;;33.07;29.75;99939.03;5034555;28;20505;-78
2021/08/14 07:30:46;;;;;;;5.80;3.00;;;;;;;34.91;25.97;99935.09;5026255;28;20048;-70
2021/08/14 07:33:12;;;;;;;4.93;2.58;;;;;;;36.69;23.81;99931.84;5058821;28;20131;-73
2021/08/14 07:35:38;;;;;;;5.60;2.80;;;;;;;38.11;21.63;99924.97;5055537;28;20052;-68
2021/08/14 07:38:04;;;;;;;4.20;2.20;;;;;;;39.36;19.59;99927.63;5022650;28;20678;-68
2021/08/14 07:40:30;;;;;;;7.05;2.97;;;;;;;40.21;19.92;99925.94;5055789;28;20490;-68
2021/08/14 07:42:56;;;;;;;5.32;2.50;;;;;;;40.70;18.27;99926.78;5055761;28;20571;-68
2021/08/14 07:45:22;;;;;;;8.10;2.38;;;;;;;42.17;17.47;99921.88;5055388;28;20051;-68
2021/08/14 07:47:49;;;;;;;6.45;2.80;;;;;;;43.48;15.35;99930.16;5055581;28;20048;-68
2021/08/14 07:50:19;;;;;;;7.63;2.70;;;;;;;43.73;15.07;99913.88;5056256;28;20045;-67
2021/08/14 07:52:45;;;;;;;3.72;2.35;;;;;;;44.02;15.30;99911.25;5055306;28;20041;-69
2021/08/14 07:55:12;;;;;;;6.22;3.30;;;;;;;44.41;14.64;99903.53;5072271;28;20400;-67
2021/08/14 07:57:39;;;;;;;4.88;2.15;;;;;;;44.43;14.08;99918.78;5055636;28;20117;-69
2021/08/14 08:00:07;;;;;;;5.68;2.30;;;;;;;44.68;14.23;99917.19;5055725;28;20045;-68
2021/08/14 08:02:38;;;;;;;7.45;2.58;;;;;;;45.46;13.21;99909.81;5023715;28;20527;-69
2021/08/14 08:05:05;;;;;;;5.13;2.13;;;;;;;44.87;13.36;99898.59;5055947;28;20062;-68
2021/08/14 08:07:31;;;;;;;5.15;2.47;;;;;;;40.22;15.92;99910.84;5055853;28;20045;-72
2021/08/14 08:09:57;;;;;;;7.63;2.30;;;;;;;36.64;20.37;99901.56;5055355;28;20055;-70
2021/08/14 08:12:24;;;;;;;6.97;2.85;;;;;;;35.56;21.65;99904.00;5038738;28;20505;-69
2021/08/14 08:14:50;;;;;;;4.07;2.60;;;;;;;37.07;21.42;99917.09;5072435;28;20091;-68
2021/08/14 08:17:16;;;;;;;5.95;2.70;;;;;;;39.12;19.50;99918.38;5022351;28;20053;-69
2021/08/14 08:19:41;;;;;;;7.95;2.70;;;;;;;41.38;16.42;99920.91;5022421;28;20052;-69
2021/08/14 08:22:07;;;;;;;4.05;2.30;;;;;;;43.26;14.71;99911.31;5038960;28;20417;-70
2021/08/14 08:24:34;;;;;;;6.43;2.83;;;;;;;44.06;13.23;99895.31;5055616;28;20044;-69
2021/08/14 08:27:00;;;;;;;5.13;2.58;;;;;;;44.20;13.34;99917.97;5055688;28;20147;-70
2021/08/14 08:29:26;;;;;;;5.13;2.58;;;;;;;44.62;13.14;99896.25;5072172;28;20136;-68
2021/08/14 08:31:51;;;;;;;6.72;2.60;;;;;;;44.53;13.04;99908.91;5038824;28;20398;-68
2021/08/14 08:34:19;;;;;;;4.55;2.58;;;;;;;45.56;13.49;99906.34;5022434;28;20062;-68
2021/08/14 08:36:45;;;;;;;8.00;3.10;;;;;;;46.95;11.75;99908.75;5038901;28;20497;-68
2021/08/14 08:39:10;;;;;;;4.90;2.70;;;;;;;47.01;11.19;99903.56;5021486;28;20091;-69
2021/08/14 08:41:36;;;;;;;3.20;2.17;;;;;;;46.24;11.04;99903.84;5034730;28;20404;-68
2021/08/14 08:44:02;;;;;;;3.97;2.50;;;;;;;44.94;11.67;99902.31;5019074;28;20155;-69
2021/08/14 08:46:31;;;;;;;3.05;2.30;;;;;;;42.87;12.79;99898.50;5052183;28;20068;-68
2021/08/14 08:48:58;;;;;;;4.20;2.50;;;;;;;41.00;14.24;99892.69;5035677;28;20098;-68
2021/08/14 08:51:25;;;;;;;5.68;2.90;;;;;;;39.68;15.98;99889.88;5068620;28;20091;-73
2021/08/14 08:53:52;;;;;;;4.65;2.60;;;;;;;39.57;16.25;99888.69;5052054;28;20067;-73
2021/08/14 08:56:18;;;;;;;4.25;2.50;;;;;;;41.32;14.89;99882.47;5068517;28;20045;-74
2021/08/14 08:58:44;;;;;;;12.70;11.38;;;;;;;43.39;13.29;99890.44;5018603;28;20052;-74
2021/08/14 09:01:09;;;;;;;6.50;2.53;;;;;;;45.03;11.80;99890.81;5002508;28;20080;-74
2021/08/14 09:03:35;;;;;;;6.70;2.67;;;;;;;43.73;12.25;99880.31;5051491;28;20520;-74
2021/08/14 09:06:01;;;;;;;3.30;2.50;;;;;;;42.58;13.51;99882.25;5035026;28;20493;-74
2021/08/14 09:08:27;;;;;;;6.15;2.67;;;;;;;40.63;15.27;99868.84;5068022;28;20131;-74
2021/08/14 09:11:07;;;;;;;5.20;3.03;;;;;;;38.69;16.81;99880.59;5050996;28;20072;-73
2021/08/14 09:13:32;;;;;;;;;;;;;;;37.90;17.96;99874.13;5053459;28;20052;-74
2021/08/14 09:16:19;;;;;;;10.00;3.47;;;;;;;38.45;17.43;99872.06;5018471;28;20297;-71
2021/08/14 09:19:01;;;;;;;6.75;3.05;;;;;;;38.98;16.51;99873.34;5051533;28;20056;-72
2021/08/14 09:21:35;;;;;;;5.97;3.50;;;;;;;41.45;14.83;99870.94;5068350;28;20048;-71
2021/08/14 09:24:05;;;;;;;5.45;2.67;;;;;;;43.43;12.71;99874.50;5035069;28;20569;-71
2021/08/14 09:26:33;;;;;;;6.68;2.90;;;;;;;45.18;11.28;99873.78;5052402;28;20056;-71
2021/08/14 09:29:06;;;;;;;7.75;2.85;;;;;;;46.86;10.64;99880.19;5033993;28;20044;-70
2021/08/14 09:31:52;;;;;;;4.80;2.65;;;;;;;48.32;8.64;99868.84;5051374;28;20131;-71
2021/08/14 09:34:20;;;;;;;9.80;3.10;;;;;;;49.37;7.92;99867.75;5034348;28;20040;-76
2021/08/14 09:37:05;;;;;;;3.72;2.60;;;;;;;50.56;6.67;99853.47;5034274;28;20041;-75
2021/08/14 09:39:33;;;;;;;8.80;2.85;;;;;;;50.92;7.04;99862.38;5034694;28;20452;-72
2021/08/14 09:42:03;;;;;;;6.68;3.40;;;;;;;50.85;7.21;99844.69;5017752;28;20052;-73
2021/08/14 09:44:29;;;;;;;7.07;3.10;;;;;;;51.28;7.21;99855.03;5050203;28;20174;-73
2021/08/14 09:46:55;;;;;;;8.07;2.83;;;;;;;51.89;6.87;99844.41;5013898;28;20073;-73
2021/08/14 09:49:20;;;;;;;7.60;2.83;;;;;;;52.72;6.75;99835.59;5030084;28;20048;-75
2021/08/14 09:51:46;;;;;;;6.10;3.00;;;;;;;53.35;5.77;99851.28;5012016;28;20060;-72
2021/08/14 09:54:12;;;;;;;9.13;3.08;;;;;;;53.98;5.58;99845.34;5030171;28;20132;-73
2021/08/14 09:56:39;;;;;;;7.25;2.42;;;;;;;52.77;5.99;99837.94;5013271;28;20487;-73
2021/08/14 09:59:07;;;;;;;6.70;2.63;;;;;;;50.08;7.18;99832.97;5014393;28;20044;-73
2021/08/14 10:01:36;;;;;;;5.07;2.55;;;;;;;47.07;9.42;99823.22;5033698;28;20044;-72
2021/08/14 10:04:03;;;;;;;4.72;2.60;;;;;;;44.30;11.01;99821.31;5034736;28;20072;-72
2021/08/14 10:06:29;;;;;;;6.30;2.95;;;;;;;42.14;12.96;99822.09;5050933;28;20519;-72
2021/08/14 10:08:56;;;;;;;7.03;2.78;;;;;;;40.31;14.84;99813.31;5018038;28;20048;-72
2021/08/14 10:11:22;;;;;;;4.47;3.10;;;;;;;38.66;16.30;99822.13;5017805;28;20093;-72
2021/08/14 10:13:49;;;;;;;6.13;2.80;;;;;;;37.62;17.15;99822.97;5034240;28;20492;-72
2021/08/14 10:16:16;;;;;;;5.72;3.22;;;;;;;36.68;18.46;99813.94;5034291;28;20053;-72
2021/08/14 10:18:43;;;;;;;12.63;3.17;;;;;;;35.66;19.86;99811.69;5033963;28;20037;-72
2021/08/14 10:21:10;;;;;;;6.53;3.08;;;;;;;34.97;20.94;99817.91;5050694;28;20064;-72
2021/08/14 10:23:36;;;;;;;8.13;3.60;;;;;;;34.35;21.96;99818.78;5050633;28;20428;-72
2021/08/14 10:26:11;;;;;;;5.95;3.78;;;;;;;34.67;21.77;99818.59;5050345;28;20045;-72
2021/08/14 10:28:52;;;;;;;8.38;3.83;;;;;;;35.90;20.73;99814.09;5066968;28;20060;-72
2021/08/14 10:31:30;;;;;;;7.18;3.03;;;;;;;38.35;17.38;99818.91;5034201;28;20106;-72
2021/08/14 10:34:11;;;;;;;10.77;3.10;;;;;;;39.04;16.10;99808.13;5050310;28;20059;-72
2021/08/14 10:36:42;;;;;;;10.15;6.57;;;;;;;38.12;16.68;99817.59;5050634;28;20489;-72
2021/08/14 10:39:30;;;;;;;9.00;3.33;;;;;;;38.34;16.55;99822.81;5050473;28;20047;-72
2021/08/14 10:42:04;;;;;;;5.32;3.20;;;;;;;38.57;16.93;99811.09;5033728;28;20394;-72
2021/08/14 10:44:47;;;;;;;5.13;3.10;;;;;;;38.99;16.59;99813.88;5033611;28;20092;-72
2021/08/14 10:47:31;;;;;;;3.70;3.15;;;;;;;38.17;17.27;99809.88;5034161;28;20508;-72
2021/08/14 10:49:57;;;;;;;4.93;3.25;;;;;;;37.11;18.41;99804.50;5050036;28;20081;-72
2021/08/14 10:52:32;;;;;;;8.02;3.47;;;;;;;35.90;19.99;99803.84;5050090;28;20087;-72
2021/08/14 10:55:01;;;;;;;5.82;3.63;;;;;;;34.94;21.13;99794.50;5049916;28;20155;-72
2021/08/14 10:57:48;;;;;;;6.90;3.70;;;;;;;33.97;22.47;99804.41;5050364;28;20132;-71
2021/08/14 11:00:18;;;;;;;3.55;3.22;;;;;;;33.36;22.68;99796.47;5050226;28;20053;-72
2021/08/14 11:02:57;;;;;;;6.45;3.47;;;;;;;34.11;22.63;99799.69;5049540;28;20052;-72
2021/08/14 11:05:25;;;;;;;4.88;3.05;;;;;;;35.09;21.23;99796.88;5049812;28;20459;-72
2021/08/14 11:07:51;;;;;;;4.88;3.15;;;;;;;37.01;18.73;99792.94;5049578;28;20053;-72
2021/08/14 11:10:17;;;;;;;5.05;3.20;;;;;;;38.73;16.98;99803.75;5000386;28;20481;-72
2021/08/14 11:12:47;;;;;;;4.82;3.00;;;;;;;40.16;15.76;99782.25;5049470;28;20072;-72
2021/08/14 11:15:28;;;;;;;4.57;2.80;;;;;;;41.19;14.54;99792.53;5049904;28;20071;-72
2021/08/14 11:17:59;;;;;;;7.47;3.03;;;;;;;41.95;13.55;99792.16;5049702;28;20053;-72
2021/08/14 11:20:25;;;;;;;6.30;2.92;;;;;;;42.37;13.50;99795.16;5050870;28;20501;-72
2021/08/14 11:22:59;;;;;;;6.78;3.03;;;;;;;42.07;13.40;99778.09;5049345;28;20052;-72
2021/08/14 11:25:39;;;;;;;3.55;2.80;;;;;;;41.16;14.09;99784.06;5049746;28;20060;-72
2021/08/14 11:28:10;;;;;;;4.60;3.08;;;;;;;40.21;15.40;99770.84;5049422;28;20053;-72
2021/08/14 11:30:40;;;;;;;8.68;2.80;;;;;;;39.10;16.02;99763.09;5049707;28;20520;-71